Allenton, WI

2:21 PM CST on March 05, 2015 (GMT -0600)
APRSWXNET West Bend WI US | Change Station
CLOSE
Current Station
Personal Weather Station
Location: West Bend, WI
Elevation: 1099 ft
Nearby Weather Stations

Elev 1099 ft 43.45 °N, 88.26 °W | Updated 55 minutes ago

Clear
Clear
10 °F
Feels Like 1 °F
N
5
Wind Variable Wind from WNW
Gusts 15.0 mph

Today
High -- | Low -- °F
--% Chance of Precip.
Yesterday
High -- | Low -- °F
Precip. -- in
6:23 AM 5:47 PM
Full, 100% visible
Pressure 30.43 in
Visibility 10.0 miles
Clouds Clear
Windchill 1 °F
Dew Point -3 °F
Humidity 55%
Rainfall in
Snow Depth Not available.
UV 4 out of 12
Pollen .50 out of 12
Air Quality Not available.
Flu Activity Not available.
METAR KETB 051950Z AUTO 28009KT 10SM CLR M10/M21 A3043 RMK AO2

More Conditions Fewer Conditions

Pressure 30.43 in
Visibility 10.0 miles
Clouds Clear
Windchill 1 °F
Dew Point -3 °F
Humidity 55%
Rainfall in
Snow Depth Not available.
UV 4 out of 12
Pollen .50 out of 12
Air Quality Not available.
Flu Activity Not available.
METAR KETB 051950Z AUTO 28009KT 10SM CLR M10/M21 A3043 RMK AO2

More Conditions Fewer Conditions

10-Day Weather Forecast

Almanac

Astronomy

Mar. 05, 2015 Rise Set
Actual Time
Civil Twilight
Nautical Twilight
Astronomical Twilight
Moon
Length of Visible Light
Length of Day
Tomorrow will be .
, % of the Moon is Illuminated

Today's Extremes

State Highs State Lows

Community

WunderPhotos

Upload Photos

1,802,943 photos uploaded!

WunderBlogs® & News

Nearby

Air Quality

  Air Quality AQ Index Pollutant
Not available.

Snow Depth

Station Depth Elevation

Earthquake Activity

City Distance Mag. Time & Date
Minimum magnitude displayed is 2.5.

Coastal Water Temperatures

Place Temperature

Nearby Weather Stations